Time;durP1;ratioP1;P1;durP2;ratioP2;P2;SDS_P1;SDS_P2;PMS_P1;PMS_P2;Temp;Humidity;BMP_temperature;BMP_pressure;BME280_temperature;BME280_humidity;BME280_pressure;Samples;Min_cycle;Max_cycle;Signal;HPM_P1;HPM_P2
2021/09/08 00:01:54;;;;;;;6.95;6.25;;;22.80;60.50;;;;;;5092848;28;20185;-60
2021/09/08 00:04:19;;;;;;;6.32;5.65;;;22.80;60.50;;;;;;5091810;28;20628;-60
2021/09/08 00:06:45;;;;;;;7.00;6.40;;;22.80;60.50;;;;;;5092545;28;20290;-60
2021/09/08 00:09:10;;;;;;;6.82;6.22;;;22.80;60.50;;;;;;5092509;28;20174;-60
2021/09/08 00:11:36;;;;;;;6.40;5.78;;;22.80;60.50;;;;;;5091631;28;20649;-60
2021/09/08 00:14:01;;;;;;;7.75;6.43;;;22.80;60.50;;;;;;5091202;28;20177;-59
2021/09/08 00:16:27;;;;;;;7.38;6.38;;;22.80;60.50;;;;;;5092245;28;20539;-60
2021/09/08 00:18:52;;;;;;;6.05;5.45;;;22.80;60.50;;;;;;5091734;28;20216;-59
2021/09/08 00:21:18;;;;;;;7.00;6.30;;;22.80;60.40;;;;;;5092152;28;20221;-60
2021/09/08 00:23:43;;;;;;;6.35;5.75;;;22.80;60.40;;;;;;5091608;28;20273;-60
2021/09/08 00:26:08;;;;;;;6.50;5.88;;;22.80;60.30;;;;;;5092544;28;20174;-60
2021/09/08 00:28:34;;;;;;;6.50;5.90;;;22.70;60.30;;;;;;5092108;28;20180;-60
2021/09/08 00:31:00;;;;;;;6.90;6.30;;;22.80;60.40;;;;;;5091872;28;20224;-60
2021/09/08 00:33:25;;;;;;;6.95;6.00;;;22.70;60.20;;;;;;5091895;28;20170;-61
2021/09/08 00:35:51;;;;;;;7.18;6.50;;;22.70;60.30;;;;;;5092383;28;20190;-61
2021/09/08 00:38:16;;;;;;;6.28;5.68;;;22.70;60.10;;;;;;5091760;28;20191;-61
2021/09/08 00:40:42;;;;;;;7.05;6.32;;;22.70;60.20;;;;;;5091905;28;20502;-61
2021/09/08 00:43:07;;;;;;;7.28;6.25;;;22.70;60.20;;;;;;5092341;28;20181;-60
2021/09/08 00:45:33;;;;;;;6.38;5.78;;;22.70;60.20;;;;;;5091206;28;20177;-61
2021/09/08 00:47:58;;;;;;;6.90;6.25;;;22.70;60.20;;;;;;5092259;28;20181;-61
2021/09/08 00:50:24;;;;;;;6.43;5.82;;;22.70;60.20;;;;;;5091774;28;20241;-60
2021/09/08 00:52:50;;;;;;;6.90;6.30;;;22.70;60.10;;;;;;5091386;28;20534;-61
2021/09/08 00:55:15;;;;;;;7.38;6.40;;;22.70;60.10;;;;;;5108031;28;20184;-60
2021/09/08 00:57:41;;;;;;;6.88;6.28;;;22.70;60.10;;;;;;5107731;28;20664;-62
2021/09/08 01:00:07;;;;;;;6.43;5.82;;;22.70;60.10;;;;;;5107247;28;20628;-60
2021/09/08 01:02:32;;;;;;;7.13;6.40;;;22.70;60.00;;;;;;5091972;28;20174;-61
2021/09/08 01:04:58;;;;;;;6.88;6.28;;;22.70;60.10;;;;;;5092144;28;20484;-61
2021/09/08 01:07:24;;;;;;;7.00;6.35;;;22.70;60.00;;;;;;5091092;28;20197;-61
2021/09/08 01:09:49;;;;;;;7.05;6.35;;;22.70;60.00;;;;;;5092134;28;20211;-61
2021/09/08 01:12:15;;;;;;;6.32;5.70;;;22.70;60.00;;;;;;5107902;28;20269;-61
2021/09/08 01:14:43;;;;;;;6.72;6.00;;;22.60;59.90;;;;;;5093698;28;20177;-61
2021/09/08 01:17:09;;;;;;;6.40;5.80;;;22.60;60.00;;;;;;5095972;28;20169;-61
2021/09/08 01:19:35;;;;;;;7.25;6.57;;;22.60;59.90;;;;;;5095310;28;20476;-61
2021/09/08 01:22:01;;;;;;;6.90;6.20;;;22.60;59.90;;;;;;5094518;28;20640;-61
2021/09/08 01:24:26;;;;;;;7.05;6.35;;;22.60;59.90;;;;;;5110960;28;20178;-60
2021/09/08 01:26:53;;;;;;;6.90;6.30;;;22.60;59.90;;;;;;5095580;28;20200;-60
2021/09/08 01:29:19;;;;;;;6.85;6.18;;;22.60;60.00;;;;;;5094954;28;20184;-60
2021/09/08 01:31:51;;;;;;;6.93;6.22;;;22.60;59.90;;;;;;5095271;28;20308;-60
2021/09/08 01:34:17;;;;;;;6.65;6.05;;;22.60;59.90;;;;;;5094608;28;20205;-61
2021/09/08 01:36:42;;;;;;;8.05;6.65;;;22.60;59.90;;;;;;5095050;28;20628;-60
2021/09/08 01:39:08;;;;;;;6.45;5.95;;;22.60;59.90;;;;;;5095355;28;20170;-60
2021/09/08 01:41:34;;;;;;;7.65;6.90;;;22.60;60.00;;;;;;5094387;28;20181;-60
2021/09/08 01:43:59;;;;;;;6.90;6.30;;;22.60;59.90;;;;;;5095056;28;20646;-60
2021/09/08 01:46:25;;;;;;;6.95;6.28;;;22.60;59.90;;;;;;5094824;28;20174;-61
2021/09/08 01:48:50;;;;;;;6.80;6.10;;;22.60;59.90;;;;;;5094496;28;20174;-60
2021/09/08 01:51:16;;;;;;;7.57;6.78;;;22.60;59.90;;;;;;5095083;28;20209;-60
2021/09/08 01:53:41;;;;;;;7.47;6.78;;;22.60;59.90;;;;;;5094945;28;20170;-60
2021/09/08 01:56:07;;;;;;;7.10;6.40;;;22.50;59.80;;;;;;5094434;28;20174;-60
2021/09/08 01:58:32;;;;;;;8.13;6.93;;;22.60;59.90;;;;;;5094494;28;20213;-60
2021/09/08 02:00:58;;;;;;;7.75;6.97;;;22.60;59.90;;;;;;5095122;28;20178;-60
2021/09/08 02:03:24;;;;;;;6.93;6.32;;;22.50;59.80;;;;;;5093505;28;20226;-61
2021/09/08 02:05:49;;;;;;;7.47;6.78;;;22.60;59.90;;;;;;5095085;28;20257;-61
2021/09/08 02:08:15;;;;;;;6.32;5.72;;;22.60;59.90;;;;;;5094932;28;20176;-60
2021/09/08 02:10:40;;;;;;;7.28;6.57;;;22.50;59.90;;;;;;5093768;28;20625;-60
2021/09/08 02:13:06;;;;;;;6.55;5.93;;;22.50;59.80;;;;;;5094875;28;20188;-60
2021/09/08 02:15:32;;;;;;;7.13;6.43;;;22.50;59.80;;;;;;5094413;28;20201;-60
2021/09/08 02:17:57;;;;;;;7.25;6.57;;;22.50;59.80;;;;;;5093765;28;20169;-60
2021/09/08 02:20:23;;;;;;;6.93;6.30;;;22.50;59.80;;;;;;5094334;28;20307;-60
2021/09/08 02:22:48;;;;;;;6.75;6.15;;;22.50;59.80;;;;;;5094341;28;20221;-60
2021/09/08 02:25:14;;;;;;;6.70;6.10;;;22.50;59.80;;;;;;5092345;28;20644;-60
2021/09/08 02:27:40;;;;;;;8.95;6.80;;;22.50;59.80;;;;;;5094091;28;20181;-61
2021/09/08 02:30:06;;;;;;;6.93;6.25;;;22.50;59.80;;;;;;5094407;28;20197;-60
2021/09/08 02:32:31;;;;;;;6.90;6.20;;;22.50;59.80;;;;;;5093062;28;20181;-60
2021/09/08 02:34:57;;;;;;;7.13;6.45;;;22.50;59.80;;;;;;5094415;28;20571;-60
2021/09/08 02:37:22;;;;;;;7.10;6.40;;;22.50;59.70;;;;;;5093272;28;20529;-60
2021/09/08 02:39:48;;;;;;;7.53;6.82;;;22.50;59.80;;;;;;5094308;28;20170;-61
2021/09/08 02:42:15;;;;;;;7.80;6.97;;;22.50;59.80;;;;;;5094220;28;20207;-60
2021/09/08 02:44:41;;;;;;;6.63;6.03;;;22.40;59.60;;;;;;5092984;28;20178;-60
2021/09/08 02:47:06;;;;;;;7.78;6.95;;;22.50;59.70;;;;;;5094196;28;20169;-60
2021/09/08 02:49:32;;;;;;;7.18;6.55;;;22.50;59.60;;;;;;5093620;28;20177;-60
2021/09/08 02:51:57;;;;;;;7.60;6.88;;;22.40;59.50;;;;;;5093264;28;20174;-60
2021/09/08 02:54:23;;;;;;;7.45;6.75;;;22.50;59.60;;;;;;5093655;28;20170;-60
2021/09/08 02:56:48;;;;;;;6.45;5.85;;;22.40;59.50;;;;;;5093579;28;20196;-60
2021/09/08 02:59:14;;;;;;;7.95;6.70;;;22.40;59.60;;;;;;5092847;28;20651;-60
2021/09/08 03:01:39;;;;;;;6.88;6.28;;;22.40;59.50;;;;;;5093398;28;20169;-61
2021/09/08 03:04:05;;;;;;;7.07;6.40;;;22.40;59.50;;;;;;5093810;28;20202;-60
2021/09/08 03:06:30;;;;;;;7.40;6.32;;;22.40;59.60;;;;;;5092873;28;20166;-60
2021/09/08 03:08:57;;;;;;;6.68;6.07;;;22.40;59.60;;;;;;5093704;28;20220;-60
2021/09/08 03:11:23;;;;;;;7.28;6.57;;;22.40;59.50;;;;;;5093151;28;20210;-60
2021/09/08 03:13:48;;;;;;;6.95;6.25;;;22.40;59.60;;;;;;5092617;28;20678;-60
2021/09/08 03:16:16;;;;;;;7.07;6.38;;;22.40;59.60;;;;;;5093331;28;20177;-60
2021/09/08 03:18:42;;;;;;;8.57;7.28;;;22.40;59.50;;;;;;5093160;28;20174;-60
2021/09/08 03:21:07;;;;;;;7.10;6.13;;;22.40;59.50;;;;;;5092622;28;20178;-60
2021/09/08 03:23:33;;;;;;;6.85;6.25;;;22.40;59.60;;;;;;5092775;28;20271;-60
2021/09/08 03:25:59;;;;;;;7.47;6.65;;;22.40;59.60;;;;;;5093295;28;20173;-64
2021/09/08 03:28:24;;;;;;;6.93;6.25;;;22.40;59.50;;;;;;5092318;28;20174;-61
2021/09/08 03:30:50;;;;;;;6.35;5.75;;;22.40;60.30;;;;;;5092904;28;20735;-60
2021/09/08 03:33:15;;;;;;;7.38;6.68;;;22.40;59.60;;;;;;5093072;28;20651;-61
2021/09/08 03:35:41;;;;;;;6.90;6.30;;;22.40;59.60;;;;;;5092044;28;20260;-60
2021/09/08 03:38:06;;;;;;;7.10;6.50;;;22.40;59.60;;;;;;5092752;28;20620;-61
2021/09/08 03:40:32;;;;;;;7.45;6.65;;;22.30;59.50;;;;;;5092641;28;20174;-61
2021/09/08 03:42:57;;;;;;;7.43;6.72;;;22.30;59.50;;;;;;5092140;28;20628;-59
2021/09/08 03:45:23;;;;;;;7.03;6.32;;;22.30;59.60;;;;;;5092520;28;20170;-61
2021/09/08 03:47:48;;;;;;;7.40;6.47;;;22.30;59.50;;;;;;5092154;28;20563;-60
2021/09/08 03:50:14;;;;;;;7.40;6.63;;;22.30;59.50;;;;;;5092772;28;20227;-61
2021/09/08 03:52:39;;;;;;;6.80;6.10;;;22.30;59.60;;;;;;5092659;28;20200;-60
2021/09/08 03:55:06;;;;;;;7.53;6.50;;;22.30;59.60;;;;;;5092185;28;20166;-60
2021/09/08 03:57:31;;;;;;;6.50;5.90;;;22.30;59.50;;;;;;5092316;28;20173;-60
2021/09/08 03:59:57;;;;;;;7.97;6.75;;;22.30;59.60;;;;;;5092838;28;20211;-60
2021/09/08 04:02:22;;;;;;;7.22;6.63;;;22.30;59.60;;;;;;5091859;28;20218;-60
2021/09/08 04:04:48;;;;;;;7.53;6.82;;;22.30;59.60;;;;;;5092601;28;20186;-61
2021/09/08 04:07:13;;;;;;;7.13;6.53;;;22.30;59.50;;;;;;5092633;28;20178;-61
2021/09/08 04:09:39;;;;;;;7.45;6.65;;;22.20;59.50;;;;;;5091395;28;20624;-60
2021/09/08 04:12:04;;;;;;;6.95;6.35;;;22.30;59.50;;;;;;5092437;28;20536;-60
2021/09/08 04:14:31;;;;;;;6.93;6.32;;;22.20;59.50;;;;;;5092071;28;20227;-60
2021/09/08 04:16:56;;;;;;;7.07;6.40;;;22.20;59.50;;;;;;5091968;28;20201;-60
2021/09/08 04:19:22;;;;;;;6.80;6.10;;;22.20;59.50;;;;;;5092289;28;20652;-65
2021/09/08 04:21:53;;;;;;;6.75;6.15;;;22.20;59.50;;;;;;5092341;28;20213;-60
2021/09/08 04:24:19;;;;;;;8.68;6.93;;;22.20;59.50;;;;;;5091549;28;20300;-60
2021/09/08 04:26:44;;;;;;;7.03;6.43;;;22.20;59.50;;;;;;5092169;28;20222;-60
2021/09/08 04:29:10;;;;;;;7.57;6.78;;;22.20;59.40;;;;;;5092152;28;20340;-60
2021/09/08 04:31:35;;;;;;;6.68;6.07;;;22.20;59.50;;;;;;5091070;28;20213;-60
2021/09/08 04:34:06;;;;;;;7.30;6.60;;;22.20;59.50;;;;;;5092117;28;20656;-60
2021/09/08 04:36:32;;;;;;;7.03;6.40;;;22.20;59.50;;;;;;5091868;28;20177;-60
2021/09/08 04:38:57;;;;;;;6.82;6.22;;;22.10;59.40;;;;;;5091379;28;20180;-60
2021/09/08 04:41:22;;;;;;;7.20;6.50;;;22.20;59.50;;;;;;5091740;28;20269;-60
2021/09/08 04:43:48;;;;;;;7.20;6.50;;;22.20;59.50;;;;;;5092516;28;20166;-60
2021/09/08 04:46:14;;;;;;;7.55;6.85;;;22.20;59.40;;;;;;5091524;28;20185;-60
2021/09/08 04:48:39;;;;;;;6.55;5.95;;;22.20;59.40;;;;;;5092905;28;20170;-60
2021/09/08 04:51:05;;;;;;;7.38;6.60;;;22.10;59.40;;;;;;5095143;28;20566;-60
2021/09/08 04:53:30;;;;;;;7.38;6.65;;;22.10;59.40;;;;;;5095698;28;20181;-60
2021/09/08 04:55:57;;;;;;;6.97;6.35;;;22.10;59.40;;;;;;5095762;28;20173;-60
2021/09/08 04:58:23;;;;;;;7.45;6.75;;;22.10;59.40;;;;;;5094726;28;20227;-60
2021/09/08 05:00:48;;;;;;;8.32;6.78;;;22.10;59.40;;;;;;5095926;28;20208;-60
2021/09/08 05:03:14;;;;;;;7.13;6.35;;;22.10;59.40;;;;;;5095792;28;20177;-60
2021/09/08 05:05:40;;;;;;;8.63;7.75;;;22.10;59.40;;;;;;5094614;28;20722;-60
2021/09/08 05:08:05;;;;;;;7.93;7.18;;;22.10;59.40;;;;;;5095802;28;20166;-60
2021/09/08 05:10:31;;;;;;;7.03;6.32;;;22.10;59.40;;;;;;5095067;28;20254;-60
2021/09/08 05:12:56;;;;;;;7.18;6.47;;;22.10;59.40;;;;;;5094785;28;20174;-59
2021/09/08 05:15:22;;;;;;;7.00;6.30;;;22.10;59.40;;;;;;5095468;28;20227;-60
2021/09/08 05:17:47;;;;;;;7.25;6.55;;;22.10;59.40;;;;;;5095539;28;20509;-60
2021/09/08 05:20:13;;;;;;;7.88;7.07;;;22.10;59.30;;;;;;5094756;28;20532;-60
2021/09/08 05:22:38;;;;;;;7.43;6.68;;;22.10;59.40;;;;;;5094908;28;20241;-60
2021/09/08 05:25:04;;;;;;;8.07;7.13;;;22.10;59.30;;;;;;5095344;28;20174;-60
2021/09/08 05:27:30;;;;;;;7.93;7.13;;;22.10;59.40;;;;;;5094240;28;20211;-60
2021/09/08 05:29:55;;;;;;;6.90;6.20;;;22.10;59.30;;;;;;5095299;28;20621;-60
2021/09/08 05:32:21;;;;;;;7.20;6.50;;;22.10;59.30;;;;;;5095137;28;20174;-60
2021/09/08 05:34:46;;;;;;;7.28;6.68;;;22.10;59.40;;;;;;5094360;28;20170;-60
2021/09/08 05:37:12;;;;;;;7.18;6.40;;;22.10;59.30;;;;;;5095225;28;20201;-60
2021/09/08 05:39:37;;;;;;;7.32;6.63;;;22.10;60.00;;;;;;5094849;28;20212;-60
2021/09/08 05:42:03;;;;;;;7.75;6.95;;;22.10;59.30;;;;;;5094218;28;20271;-60
2021/09/08 05:44:28;;;;;;;7.97;7.28;;;22.10;59.20;;;;;;5094853;28;20178;-61
2021/09/08 05:46:54;;;;;;;11.45;7.05;;;22.10;59.30;;;;;;5095091;28;20660;-60
2021/09/08 05:49:19;;;;;;;7.22;6.53;;;22.10;59.30;;;;;;5094073;28;20176;-60
2021/09/08 05:51:45;;;;;;;7.53;6.82;;;22.10;59.30;;;;;;5094648;28;20232;-60
2021/09/08 05:54:10;;;;;;;7.30;6.60;;;22.10;59.30;;;;;;5094860;28;20166;-60
2021/09/08 05:56:36;;;;;;;7.57;6.50;;;22.10;59.30;;;;;;5093722;28;20294;-60
2021/09/08 05:59:02;;;;;;;8.02;7.32;;;22.00;59.30;;;;;;5094577;28;20257;-60
2021/09/08 06:01:27;;;;;;;8.13;7.32;;;22.10;59.20;;;;;;5093727;28;20189;-60
2021/09/08 06:03:53;;;;;;;7.70;6.90;;;22.10;59.30;;;;;;5094647;28;20600;-60
2021/09/08 06:06:18;;;;;;;7.55;6.85;;;22.10;59.30;;;;;;5094734;28;20166;-60
2021/09/08 06:08:44;;;;;;;7.43;6.80;;;22.10;59.30;;;;;;5093476;28;20656;-61
2021/09/08 06:11:09;;;;;;;8.02;7.32;;;22.10;59.30;;;;;;5094424;28;20198;-61
2021/09/08 06:13:35;;;;;;;8.02;7.18;;;22.10;59.50;;;;;;5094036;28;20563;-60
2021/09/08 06:16:01;;;;;;;8.15;5.95;;;22.10;59.60;;;;;;5093975;28;20204;-60
2021/09/08 06:18:26;;;;;;;10.98;8.25;;;22.10;59.50;;;;;;5094199;28;20197;-59
2021/09/08 06:20:52;;;;;;;9.65;8.40;;;22.20;59.40;;;;;;5094334;28;20189;-59
2021/09/08 06:23:17;;;;;;;10.98;8.15;;;22.10;59.00;;;;;;5093416;28;20229;-59
2021/09/08 06:25:43;;;;;;;10.60;7.50;;;22.20;59.00;;;;;;5093897;28;20182;-59
2021/09/08 06:28:08;;;;;;;13.68;8.02;;;22.20;58.90;;;;;;5094048;28;20173;-59
2021/09/08 06:30:34;;;;;;;9.48;7.35;;;22.20;58.90;;;;;;5093242;28;20245;-59
2021/09/08 06:32:59;;;;;;;8.77;7.35;;;22.20;58.90;;;;;;5094147;28;20173;-59
2021/09/08 06:35:25;;;;;;;8.77;7.88;;;22.20;58.90;;;;;;5093891;28;20174;-60
2021/09/08 06:37:50;;;;;;;8.32;7.43;;;22.20;58.70;;;;;;5093382;28;20170;-60
2021/09/08 06:40:16;;;;;;;9.82;8.00;;;22.20;58.70;;;;;;5093695;28;20170;-60
2021/09/08 06:42:43;;;;;;;8.05;7.25;;;22.20;58.70;;;;;;5093681;28;20178;-59
2021/09/08 06:45:09;;;;;;;7.90;7.05;;;22.20;58.70;;;;;;5093401;28;20173;-60
2021/09/08 06:47:34;;;;;;;8.27;7.20;;;22.20;58.80;;;;;;5093522;28;20264;-60
2021/09/08 06:50:00;;;;;;;8.73;7.82;;;22.20;58.80;;;;;;5093641;28;20517;-59
2021/09/08 06:52:26;;;;;;;8.68;7.75;;;22.20;58.80;;;;;;5092701;28;20651;-59
2021/09/08 06:54:54;;;;;;;9.00;7.95;;;22.20;58.80;;;;;;5093585;28;20651;-59
2021/09/08 06:57:20;;;;;;;10.32;7.82;;;22.20;58.70;;;;;;5093583;28;20201;-60
2021/09/08 06:59:45;;;;;;;8.70;7.80;;;22.20;58.80;;;;;;5092955;28;20166;-59
2021/09/08 07:02:11;;;;;;;9.05;8.15;;;22.20;58.80;;;;;;5093613;28;20202;-60
2021/09/08 07:04:37;;;;;;;10.90;8.43;;;22.20;58.70;;;;;;5092431;28;20174;-60
2021/09/08 07:07:03;;;;;;;9.40;8.18;;;22.30;58.80;;;;;;5093455;28;20181;-59
2021/09/08 07:09:28;;;;;;;9.18;8.18;;;22.30;58.70;;;;;;5093043;28;20182;-60
2021/09/08 07:11:54;;;;;;;8.13;7.32;;;22.30;58.80;;;;;;5091832;28;20235;-60
2021/09/08 07:14:19;;;;;;;8.15;7.35;;;22.30;58.80;;;;;;5093344;28;20188;-59
2021/09/08 07:16:45;;;;;;;8.10;7.28;;;22.40;58.80;;;;;;5093282;28;20188;-60
2021/09/08 07:19:11;;;;;;;11.20;8.13;;;22.40;58.80;;;;;;5092582;28;20174;-59
2021/09/08 07:21:36;;;;;;;8.10;7.30;;;22.40;58.80;;;;;;5092507;28;20620;-60
2021/09/08 07:24:02;;;;;;;8.93;7.85;;;22.40;58.80;;;;;;5093042;28;20223;-59
2021/09/08 07:26:33;;;;;;;8.98;8.07;;;22.50;58.80;;;;;;5091945;28;20223;-59
2021/09/08 07:29:02;;;;;;;8.90;8.00;;;22.50;58.80;;;;;;5092853;28;20182;-59
2021/09/08 07:31:31;;;;;;;9.82;8.07;;;22.50;58.80;;;;;;5092597;28;20240;-59
2021/09/08 07:33:56;;;;;;;8.57;7.38;;;22.50;58.80;;;;;;5092134;28;20166;-60
2021/09/08 07:36:22;;;;;;;8.27;7.45;;;22.50;58.80;;;;;;5092484;28;20227;-61
2021/09/08 07:38:49;;;;;;;8.70;7.18;;;22.50;58.80;;;;;;5093018;28;20185;-61
2021/09/08 07:41:14;;;;;;;10.32;9.32;;;22.60;58.80;;;;;;5092220;28;20247;-60
2021/09/08 07:43:40;;;;;;;9.10;8.13;;;22.60;58.70;;;;;;5092479;28;20581;-60
2021/09/08 07:46:05;;;;;;;11.90;9.65;;;22.60;58.60;;;;;;5092782;28;20643;-60
2021/09/08 07:48:31;;;;;;;11.20;9.43;;;22.60;58.60;;;;;;5091650;28;20647;-59
2021/09/08 07:50:57;;;;;;;11.65;10.00;;;22.70;58.50;;;;;;5092504;28;20571;-59
2021/09/08 07:53:22;;;;;;;12.48;9.98;;;22.70;58.30;;;;;;5092196;28;20253;-60
2021/09/08 07:55:48;;;;;;;11.10;10.00;;;22.70;58.30;;;;;;5091728;28;20174;-60
2021/09/08 07:58:13;;;;;;;13.27;10.25;;;22.70;58.10;;;;;;5092731;28;20636;-59
2021/09/08 08:00:39;;;;;;;12.68;10.65;;;22.70;58.10;;;;;;5091990;28;20712;-60
2021/09/08 08:03:04;;;;;;;11.38;10.15;;;22.80;58.10;;;;;;5091841;28;20261;-60
2021/09/08 08:05:30;;;;;;;11.68;10.32;;;22.70;58.00;;;;;;5092150;28;20601;-61
2021/09/08 08:07:56;;;;;;;10.75;8.25;;;22.80;58.10;;;;;;5091671;28;20170;-60
2021/09/08 08:10:21;;;;;;;10.73;9.15;;;22.80;58.20;;;;;;5092276;28;20201;-61
2021/09/08 08:12:47;;;;;;;9.90;8.82;;;22.90;58.30;;;;;;5092528;28;20284;-61
2021/09/08 08:15:13;;;;;;;11.77;8.60;;;22.90;58.30;;;;;;5091746;28;20166;-59
2021/09/08 08:17:39;;;;;;;9.27;8.02;;;22.90;58.40;;;;;;5092123;28;20597;-61
2021/09/08 08:20:08;;;;;;;9.75;8.65;;;22.90;58.40;;;;;;5092290;28;20610;-59
2021/09/08 08:22:34;;;;;;;9.38;8.07;;;23.00;58.40;;;;;;5091808;28;20308;-59
2021/09/08 08:25:00;;;;;;;9.32;8.38;;;23.00;58.40;;;;;;5096412;28;20201;-59
2021/09/08 08:27:26;;;;;;;9.50;7.82;;;23.00;58.40;;;;;;5096075;28;20221;-59
2021/09/08 08:29:51;;;;;;;9.13;8.23;;;23.00;58.50;;;;;;5095762;28;20170;-59
2021/09/08 08:32:17;;;;;;;9.30;8.15;;;23.00;58.50;;;;;;5099841;28;20227;-59
2021/09/08 08:34:42;;;;;;;9.88;8.07;;;23.10;58.50;;;;;;5098846;28;20177;-59
2021/09/08 08:37:08;;;;;;;11.25;7.75;;;23.00;58.50;;;;;;5116108;28;20192;-59
2021/09/08 08:39:33;;;;;;;9.75;7.93;;;23.10;58.50;;;;;;5109541;28;20162;-59
2021/09/08 08:41:59;;;;;;;9.10;7.55;;;23.10;58.50;;;;;;5096262;28;20173;-59
2021/09/08 08:44:25;;;;;;;8.23;7.30;;;23.10;58.50;;;;;;5095064;28;20201;-59
2021/09/08 08:46:51;;;;;;;9.00;8.10;;;23.10;58.50;;;;;;5096113;28;20177;-60
2021/09/08 08:49:17;;;;;;;8.70;7.90;;;23.10;58.50;;;;;;5112901;28;20200;-60
2021/09/08 08:51:43;;;;;;;7.95;7.15;;;23.10;58.60;;;;;;5115414;28;20200;-60
2021/09/08 08:54:08;;;;;;;9.23;7.82;;;23.20;58.60;;;;;;5116323;28;20177;-59
2021/09/08 08:56:34;;;;;;;8.90;8.00;;;23.10;58.60;;;;;;5116085;28;20529;-60
2021/09/08 08:58:59;;;;;;;8.93;8.02;;;23.20;58.60;;;;;;5115564;28;20165;-59
2021/09/08 09:01:26;;;;;;;9.80;7.70;;;23.20;58.60;;;;;;5115860;28;20343;-59
2021/09/08 09:04:04;;;;;;;8.90;8.05;;;23.20;58.70;;;;;;5116112;28;20199;-59
2021/09/08 09:06:30;;;;;;;8.55;7.75;;;23.20;58.60;;;;;;5096815;28;20500;-59
2021/09/08 09:09:00;;;;;;;8.10;7.30;;;23.30;58.70;;;;;;5095775;28;20256;-59
2021/09/08 09:11:25;;;;;;;8.38;7.50;;;23.30;58.70;;;;;;5094573;28;20347;-60
2021/09/08 09:13:51;;;;;;;8.00;7.22;;;23.30;58.60;;;;;;5095847;28;20249;-59
2021/09/08 09:16:19;;;;;;;7.95;7.20;;;23.30;58.60;;;;;;5095540;28;20174;-59
2021/09/08 09:18:44;;;;;;;7.90;7.10;;;23.30;58.60;;;;;;5094698;28;20170;-59
2021/09/08 09:21:11;;;;;;;9.23;7.78;;;23.40;58.60;;;;;;5095287;28;20184;-59
2021/09/08 09:23:43;;;;;;;8.15;7.32;;;23.40;58.60;;;;;;5094831;28;20222;-60
2021/09/08 09:26:09;;;;;;;7.72;6.93;;;23.40;58.70;;;;;;5094682;28;20206;-59
2021/09/08 09:28:42;;;;;;;9.05;7.53;;;23.40;59.40;;;;;;5095205;28;20228;-59
2021/09/08 09:31:18;;;;;;;7.78;6.82;;;23.50;58.70;;;;;;5095309;28;20577;-60
2021/09/08 09:33:45;;;;;;;8.07;7.18;;;23.50;58.70;;;;;;5094038;28;20184;-60
2021/09/08 09:36:30;;;;;;;9.40;7.78;;;23.50;58.70;;;;;;5095056;28;20261;-60
2021/09/08 09:38:56;;;;;;;10.73;7.38;;;23.60;58.70;;;;;;5098904;28;20189;-60
2021/09/08 09:41:32;;;;;;;8.85;7.88;;;23.60;58.70;;;;;;5114375;28;20185;-60
2021/09/08 09:44:14;;;;;;;8.35;7.55;;;23.60;58.70;;;;;;5115401;28;20169;-59
2021/09/08 09:46:40;;;;;;;8.02;7.22;;;23.60;58.60;;;;;;5114400;28;20184;-60
2021/09/08 09:49:06;;;;;;;9.00;7.55;;;23.60;58.60;;;;;;5115326;27;20259;-59
2021/09/08 09:51:31;;;;;;;8.00;7.20;;;23.60;58.50;;;;;;5114823;28;20683;-59
2021/09/08 09:53:57;;;;;;;8.43;7.32;;;23.60;58.50;;;;;;5114720;28;20169;-59
2021/09/08 09:56:23;;;;;;;9.50;8.05;;;23.70;58.50;;;;;;5114797;28;20527;-59
2021/09/08 09:58:48;;;;;;;9.77;7.90;;;23.70;58.50;;;;;;5115148;28;20255;-59
2021/09/08 10:01:14;;;;;;;8.90;8.00;;;23.70;58.50;;;;;;5114480;28;20340;-59
2021/09/08 10:03:39;;;;;;;8.05;7.15;;;23.70;58.40;;;;;;5114803;28;20229;-60
2021/09/08 10:06:05;;;;;;;7.70;6.95;;;23.70;58.40;;;;;;5114868;28;20183;-59
2021/09/08 10:08:32;;;;;;;7.35;6.65;;;23.80;58.40;;;;;;5113939;28;20169;-60
2021/09/08 10:11:00;;;;;;;9.05;7.95;;;23.80;58.40;;;;;;5113649;28;20236;-59
2021/09/08 10:13:31;;;;;;;9.30;7.93;;;23.80;58.40;;;;;;5096556;28;20651;-60
2021/09/08 10:15:58;;;;;;;8.75;7.85;;;23.80;58.40;;;;;;5096665;28;20177;-59
2021/09/08 10:18:25;;;;;;;7.90;7.03;;;23.80;58.40;;;;;;5114349;28;20173;-59
2021/09/08 10:21:06;;;;;;;11.55;7.43;;;23.80;58.30;;;;;;5114558;28;20647;-59
2021/09/08 10:23:39;;;;;;;11.95;7.47;;;23.90;58.30;;;;;;5113453;28;20229;-59
2021/09/08 10:26:18;;;;;;;9.77;7.63;;;23.90;58.20;;;;;;5114693;28;20177;-59
2021/09/08 10:28:44;;;;;;;9.38;7.53;;;24.00;58.40;;;;;;5113793;28;20169;-59
2021/09/08 10:31:10;;;;;;;11.07;7.55;;;23.90;58.40;;;;;;5114357;28;20636;-59
2021/09/08 10:33:37;;;;;;;9.65;7.53;;;23.90;58.40;;;;;;5114016;28;20257;-60
2021/09/08 10:36:03;;;;;;;9.27;7.00;;;23.90;58.40;;;;;;5113612;28;20649;-61
2021/09/08 10:38:30;;;;;;;9.40;7.72;;;23.90;58.50;;;;;;5113980;28;20259;-61
2021/09/08 10:40:56;;;;;;;10.75;7.03;;;24.00;58.60;;;;;;5076204;28;20178;-60
2021/09/08 10:43:29;;;;;;;7.30;6.57;;;24.00;58.70;;;;;;5092802;28;20197;-60
2021/09/08 10:45:54;;;;;;;8.05;6.97;;;24.10;58.70;;;;;;5092937;28;20254;-60
2021/09/08 10:48:45;;;;;;;8.50;7.28;;;24.10;58.70;;;;;;5093182;28;20252;-60
2021/09/08 10:51:17;;;;;;;10.00;7.70;;;24.10;58.70;;;;;;5092925;28;20209;-60
2021/09/08 10:53:42;;;;;;;8.90;7.30;;;24.20;58.80;;;;;;5093373;28;20174;-59
2021/09/08 10:56:08;;;;;;;9.43;7.72;;;24.20;58.80;;;;;;5109360;28;20265;-63
2021/09/08 10:58:56;;;;;;;10.77;7.57;;;24.20;58.90;;;;;;5092365;28;20257;-64
2021/09/08 11:01:22;;;;;;;10.23;8.10;;;24.20;58.60;;;;;;5093040;28;20174;-64
2021/09/08 11:03:47;;;;;;;10.07;9.07;;;24.20;58.30;;;;;;5092305;28;20170;-65
2021/09/08 11:06:13;;;;;;;10.32;9.02;;;24.20;57.50;;;;;;5091617;28;20273;-65
2021/09/08 11:08:38;;;;;;;11.93;10.27;;;24.40;56.80;;;;;;5092530;28;20188;-65
2021/09/08 11:11:12;;;;;;;10.02;8.95;;;24.50;56.30;;;;;;5091951;28;20206;-63
2021/09/08 11:13:38;;;;;;;11.95;9.32;;;24.50;56.10;;;;;;5092505;28;20173;-64
2021/09/08 11:16:17;;;;;;;12.00;9.30;;;24.60;55.70;;;;;;5092940;28;20173;-64
2021/09/08 11:18:43;;;;;;;11.75;10.38;;;24.70;55.60;;;;;;5091651;28;20170;-63
2021/09/08 11:21:08;;;;;;;11.80;10.60;;;24.70;55.00;;;;;;5092735;28;20667;-63
2021/09/08 11:23:34;;;;;;;11.63;8.95;;;24.70;54.80;;;;;;5091945;28;20229;-64
2021/09/08 11:26:07;;;;;;;10.45;8.70;;;24.80;54.80;;;;;;5092001;28;20173;-63
2021/09/08 11:28:32;;;;;;;10.05;9.05;;;24.80;54.70;;;;;;5092259;28;20477;-63
2021/09/08 11:30:58;;;;;;;10.88;9.77;;;24.80;54.60;;;;;;5092507;28;20613;-62
2021/09/08 11:33:32;;;;;;;11.05;9.05;;;24.90;54.50;;;;;;5091448;28;20169;-63
2021/09/08 11:35:58;;;;;;;10.52;8.75;;;24.90;54.60;;;;;;5091147;28;20217;-63
2021/09/08 11:38:28;;;;;;;11.35;10.00;;;24.90;54.70;;;;;;5091760;28;20264;-64
2021/09/08 11:40:58;;;;;;;11.30;9.70;;;24.80;55.00;;;;;;5111851;28;20173;-63
2021/09/08 11:43:34;;;;;;;11.18;9.57;;;24.80;55.00;;;;;;5112414;28;20230;-64
2021/09/08 11:46:35;;;;;;;9.82;8.77;;;24.80;54.90;;;;;;5111928;28;20180;-63
2021/09/08 11:49:10;;;;;;;12.75;9.38;;;24.80;54.60;;;;;;5050157;28;20179;-63
2021/09/08 11:51:40;;;;;;;12.68;9.30;;;24.80;54.90;;;;;;5103803;28;20332;-62
2021/09/08 11:54:13;;;;;;;9.32;8.35;;;24.80;55.20;;;;;;5112092;28;20176;-63
2021/09/08 11:56:39;;;;;;;9.85;8.80;;;24.60;55.40;;;;;;5112574;28;20230;-63
2021/09/08 11:59:05;;;;;;;11.15;9.60;;;24.50;55.60;;;;;;5112307;28;20180;-62
2021/09/08 12:01:35;;;;;;;10.30;9.25;;;24.50;55.80;;;;;;5111861;28;20181;-63
2021/09/08 12:04:01;;;;;;;9.40;8.50;;;24.50;56.00;;;;;;5112862;28;20306;-63
2021/09/08 12:06:29;;;;;;;9.68;8.77;;;24.50;56.10;;;;;;5111314;28;20165;-65
2021/09/08 12:09:09;;;;;;;11.93;9.43;;;24.40;56.10;;;;;;5112098;28;20259;-62
2021/09/08 12:11:45;;;;;;;10.32;8.80;;;24.40;56.10;;;;;;5112132;28;20536;-63
2021/09/08 12:14:33;;;;;;;9.55;8.60;;;24.50;56.10;;;;;;5111978;28;20251;-62
2021/09/08 12:17:01;;;;;;;8.52;7.72;;;24.50;56.10;;;;;;5112623;28;20183;-62
2021/09/08 12:19:43;;;;;;;9.75;8.65;;;24.50;56.10;;;;;;5112095;28;20264;-62
2021/09/08 12:22:10;;;;;;;9.82;8.82;;;24.50;56.10;;;;;;5111428;28;20706;-62
2021/09/08 12:24:43;;;;;;;8.90;8.10;;;24.50;56.10;;;;;;5112336;28;20226;-62
2021/09/08 12:27:25;;;;;;;9.32;8.32;;;24.50;56.10;;;;;;5112427;28;20628;-61
2021/09/08 12:29:54;;;;;;;9.32;7.85;;;24.50;56.10;;;;;;5111654;28;20184;-62
2021/09/08 12:32:19;;;;;;;9.02;8.20;;;24.50;56.10;;;;;;5112134;28;20209;-63
2021/09/08 12:34:51;;;;;;;8.68;7.88;;;24.60;56.30;;;;;;5112069;28;20512;-64
2021/09/08 12:37:17;;;;;;;8.57;7.78;;;24.60;56.20;;;;;;5111658;28;20177;-64
2021/09/08 12:39:51;;;;;;;8.82;8.00;;;24.60;56.20;;;;;;5101438;28;20223;-64
2021/09/08 12:42:17;;;;;;;9.38;8.23;;;24.60;56.20;;;;;;5091187;28;20260;-63
2021/09/08 12:44:42;;;;;;;9.23;8.23;;;24.60;56.20;;;;;;5091394;28;20636;-63